Time;durP1;ratioP1;P1;durP2;ratioP2;P2;SDS_P1;SDS_P2;PMS_P1;PMS_P2;Temp;Humidity;BMP_temperature;BMP_pressure;BME280_temperature;BME280_humidity;BME280_pressure;Samples;Min_cycle;Max_cycle;Signal;HPM_P1;HPM_P2
2021/07/04 00:00:42;;;;;;;8.60;5.70;;;461.30;2380.80;;;;;;5094828;28;20028;-80
2021/07/04 00:03:08;;;;;;;8.38;5.38;;;461.20;2380.80;;;;;;5083953;28;20020;-81
2021/07/04 00:05:43;;;;;;;8.68;5.72;;;461.10;2380.80;;;;;;5095066;28;20432;-73
2021/07/04 00:08:11;;;;;;;7.13;5.45;;;461.10;2380.80;;;;;;5095221;28;20046;-70
2021/07/04 00:10:40;;;;;;;6.55;5.35;;;461.10;2380.80;;;;;;5077864;28;20471;-72
2021/07/04 00:13:06;;;;;;;6.80;5.43;;;461.10;2380.80;;;;;;5094053;28;20028;-73
2021/07/04 00:15:39;;;;;;;7.63;6.07;;;461.20;2380.80;;;;;;5094775;28;20028;-72
2021/07/04 00:18:10;;;;;;;6.15;5.15;;;461.20;2380.80;;;;;;5094235;28;20016;-72
2021/07/04 00:20:36;;;;;;;7.50;5.32;;;461.20;2380.80;;;;;;5094645;28;20040;-71
2021/07/04 00:23:03;;;;;;;8.43;5.72;;;461.20;2380.80;;;;;;5094393;28;20031;-72
2021/07/04 00:25:29;;;;;;;6.72;5.47;;;461.20;2380.80;;;;;;5076446;28;20061;-78
2021/07/04 00:27:57;;;;;;;7.47;5.53;;;461.10;2380.80;;;;;;5094478;28;20026;-81
2021/07/04 00:30:24;;;;;;;7.60;5.65;;;461.10;2380.80;;;;;;5094470;28;20020;-81
2021/07/04 00:32:50;;;;;;;8.48;5.97;;;461.20;2380.80;;;;;;5094519;28;20039;-82
2021/07/04 00:35:16;;;;;;;7.63;6.00;;;461.10;2380.80;;;;;;5075491;28;20150;-80
2021/07/04 00:37:43;;;;;;;8.13;5.80;;;461.10;2380.80;;;;;;5094600;28;20069;-72
2021/07/04 00:40:09;;;;;;;8.90;5.97;;;461.10;2380.80;;;;;;5093995;28;20052;-72
2021/07/04 00:42:36;;;;;;;8.40;6.00;;;461.10;2380.80;;;;;;5094362;28;20120;-71
2021/07/04 00:45:11;;;;;;;8.20;5.78;;;461.10;2380.80;;;;;;5102615;28;20073;-72
2021/07/04 00:47:37;;;;;;;8.50;5.88;;;461.10;2380.80;;;;;;5095790;28;20012;-72
2021/07/04 00:50:04;;;;;;;8.90;5.88;;;461.10;2380.80;;;;;;5094214;28;20086;-72
2021/07/04 00:52:30;;;;;;;6.50;5.43;;;460.90;2380.80;;;;;;5094057;28;20046;-72
2021/07/04 00:54:56;;;;;;;8.55;6.00;;;460.90;2380.80;;;;;;5094516;28;20067;-72
2021/07/04 00:57:22;;;;;;;7.93;5.90;;;460.80;2380.80;;;;;;5094110;28;20490;-72
2021/07/04 00:59:48;;;;;;;6.75;5.38;;;460.80;2380.80;;;;;;5093887;28;20036;-73
2021/07/04 01:02:13;;;;;;;8.25;6.18;;;460.80;2380.80;;;;;;5093885;28;20024;-72
2021/07/04 01:04:39;;;;;;;10.43;5.82;;;460.80;2380.80;;;;;;5093570;28;20055;-72
2021/07/04 01:07:06;;;;;;;6.75;5.32;;;460.80;2380.80;;;;;;5094120;28;20133;-72
2021/07/04 01:09:32;;;;;;;12.52;5.90;;;460.80;2380.80;;;;;;5093534;28;20024;-72
2021/07/04 01:11:58;;;;;;;7.72;5.63;;;460.80;2380.80;;;;;;5094091;28;20035;-73
2021/07/04 01:14:24;;;;;;;7.63;5.40;;;460.90;2380.80;;;;;;5095105;28;20020;-72
2021/07/04 01:16:50;;;;;;;7.00;5.38;;;460.90;2380.80;;;;;;5091089;28;20743;-79
2021/07/04 01:19:17;;;;;;;8.85;5.68;;;460.90;2380.80;;;;;;5097720;28;20066;-81
2021/07/04 01:21:45;;;;;;;6.80;5.50;;;436.00;2355.20;;;;;;5092391;28;20226;-72
2021/07/04 01:24:11;;;;;;;9.63;5.72;;;435.90;2355.20;;;;;;5079061;28;20079;-76
2021/07/04 01:26:38;;;;;;;7.20;5.72;;;435.90;2355.20;;;;;;5091929;28;20036;-76
2021/07/04 01:29:04;;;;;;;8.18;5.95;;;435.90;2355.20;;;;;;5059079;28;20386;-74
2021/07/04 01:31:31;;;;;;;13.50;5.90;;;435.80;2355.20;;;;;;5093481;28;20016;-76
2021/07/04 01:33:56;;;;;;;7.68;5.78;;;435.80;2355.20;;;;;;5092963;28;20024;-72
2021/07/04 01:36:22;;;;;;;7.38;5.85;;;435.80;2355.20;;;;;;5093190;28;20039;-75
2021/07/04 01:38:48;;;;;;;8.52;6.00;;;435.70;2355.20;;;;;;5093286;28;20031;-80
2021/07/04 01:41:14;;;;;;;7.07;5.90;;;435.70;2355.20;;;;;;5093250;28;20024;-81
2021/07/04 01:43:39;;;;;;;6.97;5.70;;;435.70;2355.20;;;;;;5093266;28;20054;-81
2021/07/04 01:46:05;;;;;;;8.23;6.10;;;435.70;2355.20;;;;;;5092863;28;20020;-72
2021/07/04 01:48:31;;;;;;;10.02;5.78;;;435.70;2355.20;;;;;;5093087;28;20356;-77
2021/07/04 01:50:56;;;;;;;7.63;5.53;;;435.70;2355.20;;;;;;5093049;28;20031;-75
2021/07/04 01:53:22;;;;;;;8.32;5.72;;;435.70;2355.20;;;;;;5088230;28;20028;-80
2021/07/04 01:55:49;;;;;;;8.65;5.75;;;435.50;2355.20;;;;;;5091888;28;20032;-80
2021/07/04 01:58:15;;;;;;;8.50;6.28;;;435.50;2355.20;;;;;;5079696;28;20521;-76
2021/07/04 02:00:41;;;;;;;6.65;5.95;;;435.50;2355.20;;;;;;5092798;28;20060;-80
2021/07/04 02:03:09;;;;;;;11.50;5.85;;;435.50;2355.20;;;;;;5087365;28;20075;-81
2021/07/04 02:05:35;;;;;;;7.57;6.50;;;435.50;2355.20;;;;;;5084563;28;20074;-82
2021/07/04 02:08:01;;;;;;;6.65;5.93;;;435.50;2355.20;;;;;;5092656;28;20023;-82
2021/07/04 02:10:36;;;;;;;7.15;5.93;;;435.40;2355.20;;;;;;5092498;28;20020;-81
2021/07/04 02:13:03;;;;;;;7.07;5.63;;;435.40;2355.20;;;;;;5074527;28;20145;-80
2021/07/04 02:15:32;;;;;;;10.45;5.88;;;435.50;2355.20;;;;;;5092486;28;20012;-72
2021/07/04 02:18:06;;;;;;;8.32;6.10;;;435.50;2355.20;;;;;;5077897;28;20126;-81
2021/07/04 02:20:41;;;;;;;7.50;5.90;;;435.50;2355.20;;;;;;5092367;28;20505;-82
2021/07/04 02:23:17;;;;;;;9.57;6.00;;;435.50;2355.20;;;;;;5073807;28;20032;-81
2021/07/04 02:25:45;;;;;;;9.45;6.30;;;435.30;2355.20;;;;;;5094605;28;20028;-81
2021/07/04 02:28:13;;;;;;;8.38;5.82;;;435.20;2355.20;;;;;;5097977;28;20054;-79
2021/07/04 02:30:40;;;;;;;9.57;6.18;;;410.40;2355.20;;;;;;5092313;28;20016;-79
2021/07/04 02:33:08;;;;;;;8.10;5.93;;;410.30;2355.20;;;;;;5092520;28;20016;-80
2021/07/04 02:35:36;;;;;;;8.75;6.32;;;410.30;2355.20;;;;;;5091985;28;20109;-80
2021/07/04 02:38:04;;;;;;;8.85;6.45;;;410.20;2355.20;;;;;;5074192;28;20066;-81
2021/07/04 02:40:30;;;;;;;8.43;6.00;;;410.20;2355.20;;;;;;5092069;28;20027;-81
2021/07/04 02:42:57;;;;;;;9.35;6.13;;;410.20;2355.20;;;;;;5074330;28;20027;-82
2021/07/04 02:45:24;;;;;;;7.93;5.78;;;410.30;2355.20;;;;;;5091813;28;20528;-80
2021/07/04 02:47:50;;;;;;;8.73;6.15;;;410.30;2355.20;;;;;;5073997;28;20107;-80
2021/07/04 02:50:20;;;;;;;7.60;6.78;;;410.20;2355.20;;;;;;5092431;28;20134;-80
2021/07/04 02:52:47;;;;;;;9.65;6.90;;;410.20;2355.20;;;;;;5085534;28;20119;-78
2021/07/04 02:55:13;;;;;;;10.40;6.68;;;410.20;2355.20;;;;;;5089111;28;20482;-81
2021/07/04 02:57:42;;;;;;;7.35;6.55;;;410.30;2355.20;;;;;;5089949;28;20078;-82
2021/07/04 03:00:11;;;;;;;8.48;6.93;;;410.30;2355.20;;;;;;5061243;28;20103;-82
2021/07/04 03:02:38;;;;;;;8.27;7.00;;;410.30;2355.20;;;;;;5086094;28;20104;-81
2021/07/04 03:05:10;;;;;;;9.45;6.78;;;410.30;2355.20;;;;;;5081199;28;20073;-80
2021/07/04 03:07:37;;;;;;;10.15;6.93;;;410.30;2355.20;;;;;;5089813;28;20406;-79
2021/07/04 03:10:08;;;;;;;7.93;6.82;;;410.40;2355.20;;;;;;5085177;28;20031;-78
2021/07/04 03:12:37;;;;;;;8.85;7.35;;;410.30;2355.20;;;;;;5088904;28;20478;-80
2021/07/04 03:15:07;;;;;;;9.20;7.43;;;410.40;2355.20;;;;;;5087936;28;20137;-72
2021/07/04 03:17:33;;;;;;;8.10;7.30;;;410.40;2355.20;;;;;;5089813;28;20028;-74
2021/07/04 03:19:59;;;;;;;10.77;7.40;;;410.40;2355.20;;;;;;5084420;28;20309;-76
2021/07/04 03:22:25;;;;;;;9.80;7.38;;;410.50;2355.20;;;;;;5088855;28;20028;-73
2021/07/04 03:24:51;;;;;;;9.20;7.50;;;410.50;2355.20;;;;;;5088669;28;20039;-82
2021/07/04 03:27:17;;;;;;;10.60;8.30;;;410.50;2355.20;;;;;;5088693;28;20020;-77
2021/07/04 03:29:42;;;;;;;8.25;7.35;;;410.50;2355.20;;;;;;5090288;28;20032;-76
2021/07/04 03:32:08;;;;;;;10.65;7.30;;;435.20;2355.20;;;;;;5085387;28;20027;-77
2021/07/04 03:34:34;;;;;;;10.45;8.07;;;435.20;2355.20;;;;;;5089861;28;20020;-80
2021/07/04 03:37:00;;;;;;;8.23;7.38;;;435.20;2355.20;;;;;;5086450;28;20020;-77
2021/07/04 03:39:26;;;;;;;9.63;7.95;;;435.30;2355.20;;;;;;5074435;28;20533;-72
2021/07/04 03:41:52;;;;;;;8.85;7.72;;;435.20;2355.20;;;;;;5085966;28;20371;-74
2021/07/04 03:44:17;;;;;;;9.23;7.47;;;435.30;2355.20;;;;;;5085701;28;20020;-73
2021/07/04 03:46:43;;;;;;;12.05;8.27;;;435.20;2355.20;;;;;;5090386;28;20036;-72
2021/07/04 03:49:09;;;;;;;10.07;8.70;;;435.20;2355.20;;;;;;5083351;28;20021;-73
2021/07/04 03:51:35;;;;;;;10.45;8.10;;;435.20;2355.20;;;;;;5082770;28;20025;-71
2021/07/04 03:54:01;;;;;;;10.20;8.73;;;435.20;2355.20;;;;;;5088278;28;20501;-70
2021/07/04 03:56:26;;;;;;;16.73;12.05;;;435.20;2355.20;;;;;;5084579;28;20361;-75
2021/07/04 03:58:52;;;;;;;14.75;12.50;;;435.20;2355.20;;;;;;5088782;28;20482;-75
2021/07/04 04:01:21;;;;;;;13.43;10.52;;;435.20;2355.20;;;;;;5083229;28;20024;-73
2021/07/04 04:03:48;;;;;;;12.68;11.30;;;435.30;2355.20;;;;;;5087874;28;20069;-73
2021/07/04 04:06:14;;;;;;;12.15;10.40;;;435.30;2355.20;;;;;;5084229;28;20028;-78
2021/07/04 04:08:44;;;;;;;14.20;10.30;;;435.30;2355.20;;;;;;5092086;28;20020;-73
2021/07/04 04:11:11;;;;;;;12.45;10.43;;;435.30;2355.20;;;;;;5089527;28;20015;-72
2021/07/04 04:13:38;;;;;;;11.52;9.70;;;435.40;2355.20;;;;;;5092642;28;20032;-72
2021/07/04 04:16:05;;;;;;;13.98;9.45;;;435.60;2355.20;;;;;;5092741;28;20020;-71
2021/07/04 04:18:35;;;;;;;22.58;16.25;;;435.70;2355.20;;;;;;5090142;28;20067;-76
2021/07/04 04:21:01;;;;;;;13.60;10.43;;;435.70;2355.20;;;;;;5093047;28;20044;-76
2021/07/04 04:23:27;;;;;;;12.60;10.05;;;435.70;2355.20;;;;;;5088460;28;20031;-72
2021/07/04 04:25:53;;;;;;;13.15;10.35;;;435.80;2355.20;;;;;;5084334;28;20449;-72
2021/07/04 04:28:18;;;;;;;11.65;8.82;;;435.90;2355.20;;;;;;5089709;28;20024;-77
2021/07/04 04:30:44;;;;;;;10.45;8.30;;;436.00;2355.20;;;;;;5086513;28;20023;-71
2021/07/04 04:33:10;;;;;;;11.25;8.32;;;436.10;2355.20;;;;;;5092826;28;20499;-75
2021/07/04 04:35:35;;;;;;;10.70;7.90;;;460.80;2380.80;;;;;;5087428;28;20024;-72
2021/07/04 04:38:01;;;;;;;8.80;7.60;;;460.80;2380.80;;;;;;5093219;28;20016;-72
2021/07/04 04:40:27;;;;;;;10.13;7.00;;;460.90;2380.80;;;;;;5090069;28;20031;-76
2021/07/04 04:42:54;;;;;;;8.25;7.30;;;460.90;2380.80;;;;;;5092943;28;20095;-73
2021/07/04 04:45:20;;;;;;;7.53;6.65;;;461.10;2380.80;;;;;;5088708;28;20051;-72
2021/07/04 04:47:45;;;;;;;8.70;7.47;;;461.30;2380.80;;;;;;5091835;28;20478;-72
2021/07/04 04:50:12;;;;;;;7.90;7.10;;;461.40;2380.80;;;;;;5092919;28;20024;-73
2021/07/04 04:52:38;;;;;;;8.55;7.30;;;461.40;2380.80;;;;;;5089609;28;20019;-73
2021/07/04 04:55:09;;;;;;;9.73;6.90;;;461.60;2380.80;;;;;;5092764;28;20027;-75
2021/07/04 04:57:35;;;;;;;8.80;7.13;;;512.90;2380.80;;;;;;5082336;28;20020;-72
2021/07/04 05:00:03;;;;;;;7.82;7.03;;;640.70;2432.00;;;;;;5074860;28;20020;-73
2021/07/04 05:02:28;;;;;;;8.02;6.75;;;742.50;2432.00;;;;;;5087068;28;20019;-73
2021/07/04 05:04:54;;;;;;;8.27;7.32;;;794.00;2201.60;;;;;;5091620;28;20016;-71
2021/07/04 05:07:20;;;;;;;7.35;6.65;;;844.90;1971.20;;;;;;5091970;28;20528;-73
2021/07/04 05:09:46;;;;;;;7.70;6.90;;;870.40;1843.20;;;;;;5084446;28;20092;-72
2021/07/04 05:12:11;;;;;;;7.75;6.43;;;871.20;1740.80;;;;;;5076360;28;20580;-78
2021/07/04 05:14:37;;;;;;;7.45;6.20;;;896.20;1664.00;;;;;;5087284;28;20022;-72
2021/07/04 05:17:03;;;;;;;7.20;6.50;;;896.80;1612.80;;;;;;5090093;28;20058;-72
2021/07/04 05:19:30;;;;;;;6.80;6.10;;;922.10;1587.20;;;;;;5090632;28;20021;-73
2021/07/04 05:21:56;;;;;;;6.80;6.20;;;947.20;1536.00;;;;;;5090060;28;20020;-72
2021/07/04 05:24:21;;;;;;;7.10;6.28;;;948.10;1484.80;;;;;;5088818;28;20563;-72
2021/07/04 05:26:48;;;;;;;7.40;6.18;;;947.80;1484.80;;;;;;5084977;28;20548;-71
2021/07/04 05:29:13;;;;;;;7.60;6.10;;;948.10;1459.20;;;;;;5095246;28;20059;-73
2021/07/04 05:31:39;;;;;;;7.47;6.20;;;973.20;1459.20;;;;;;5097244;28;20045;-77
2021/07/04 05:34:05;;;;;;;7.35;5.78;;;947.80;1459.20;;;;;;5092114;28;20024;-72
2021/07/04 05:36:31;;;;;;;7.78;6.88;;;922.20;1484.80;;;;;;5090187;28;20032;-71
2021/07/04 05:38:58;;;;;;;7.78;5.50;;;870.60;1561.60;;;;;;5088495;28;20036;-75
2021/07/04 05:41:23;;;;;;;7.20;5.60;;;794.00;1689.60;;;;;;5090801;28;20150;-71
2021/07/04 05:43:50;;;;;;;7.00;5.78;;;743.10;1766.40;;;;;;5091363;28;20423;-71
2021/07/04 05:46:16;;;;;;;6.38;5.60;;;717.10;1868.80;;;;;;5092122;28;20031;-75
2021/07/04 05:48:44;;;;;;;6.53;5.47;;;666.30;1945.60;;;;;;5087566;28;20036;-71
2021/07/04 05:51:10;;;;;;;5.95;5.32;;;640.60;1996.80;;;;;;5074120;28;20048;-72
2021/07/04 05:53:36;;;;;;;7.15;6.00;;;640.10;2073.60;;;;;;5078209;28;20028;-71
2021/07/04 05:56:02;;;;;;;7.18;6.07;;;614.80;2124.80;;;;;;5096398;28;20430;-71
2021/07/04 05:58:28;;;;;;;6.90;6.20;;;589.70;2176.00;;;;;;5088168;28;20028;-71
2021/07/04 06:00:53;;;;;;;7.13;6.10;;;589.40;2227.20;;;;;;5088242;28;20020;-72
2021/07/04 06:03:19;;;;;;;7.00;6.25;;;589.00;2278.40;;;;;;5089004;28;20042;-76
2021/07/04 06:05:45;;;;;;;10.82;6.22;;;589.00;2329.60;;;;;;5101676;28;20028;-73
2021/07/04 06:08:10;;;;;;;7.55;6.43;;;589.10;2355.20;;;;;;5091368;28;20073;-76
2021/07/04 06:10:37;;;;;;;7.15;6.35;;;589.20;2380.80;;;;;;5072543;28;20024;-73
2021/07/04 06:13:03;;;;;;;7.07;6.15;;;589.10;2406.40;;;;;;5089679;28;20016;-72
2021/07/04 06:15:29;;;;;;;7.32;5.80;;;589.30;2432.00;;;;;;5089932;28;20501;-73
2021/07/04 06:17:55;;;;;;;7.32;5.90;;;589.50;2432.00;;;;;;5084963;28;20077;-72
2021/07/04 06:20:21;;;;;;;8.25;6.30;;;589.60;2432.00;;;;;;5082354;28;20181;-73
2021/07/04 06:22:47;;;;;;;6.93;5.97;;;589.60;2432.00;;;;;;5099262;28;21506;-73
2021/07/04 06:25:14;;;;;;;7.25;5.97;;;589.70;2432.00;;;;;;5097412;28;20032;-73
2021/07/04 06:27:40;;;;;;;6.93;5.93;;;589.70;2432.00;;;;;;5080965;28;20031;-72
2021/07/04 06:30:11;;;;;;;7.00;6.30;;;614.60;2432.00;;;;;;5104832;28;20474;-74
2021/07/04 06:32:39;;;;;;;6.38;5.78;;;614.60;2432.00;;;;;;5089396;28;20020;-73
2021/07/04 06:35:07;;;;;;;6.65;6.00;;;614.70;2432.00;;;;;;5087990;28;20474;-72
2021/07/04 06:37:33;;;;;;;7.80;6.25;;;614.60;2432.00;;;;;;5088897;28;20441;-73
2021/07/04 06:39:59;;;;;;;7.47;5.97;;;614.80;2432.00;;;;;;5088084;28;20065;-73
2021/07/04 06:42:25;;;;;;;6.85;6.07;;;614.80;2432.00;;;;;;5072814;28;20020;-73
2021/07/04 06:44:50;;;;;;;8.30;5.80;;;614.80;2432.00;;;;;;5088863;28;20031;-73
2021/07/04 06:47:16;;;;;;;7.70;6.35;;;615.00;2432.00;;;;;;5086357;28;20066;-73
2021/07/04 06:49:42;;;;;;;6.55;5.88;;;615.20;2432.00;;;;;;5080748;28;20024;-73
2021/07/04 06:52:08;;;;;;;6.85;6.20;;;615.30;2432.00;;;;;;5091444;28;20035;-74
2021/07/04 06:54:34;;;;;;;7.72;5.80;;;640.00;2432.00;;;;;;5090841;28;20050;-73
2021/07/04 06:59:44;;;;;;;8.70;5.60;;;640.20;2406.40;;;;;;5083759;28;20051;-73
2021/07/04 07:02:10;;;;;;;8.60;5.50;;;640.50;2406.40;;;;;;5069987;28;20482;-70
2021/07/04 07:04:35;;;;;;;7.22;5.70;;;640.70;2355.20;;;;;;5083926;28;20123;-72
2021/07/04 07:07:01;;;;;;;6.10;5.50;;;640.60;2329.60;;;;;;5089625;28;20028;-73
2021/07/04 07:09:27;;;;;;;5.80;5.18;;;665.60;2355.20;;;;;;5092168;28;20427;-72
2021/07/04 07:11:53;;;;;;;6.60;5.50;;;665.70;2329.60;;;;;;5090712;28;20063;-75
2021/07/04 07:14:21;;;;;;;5.72;5.13;;;666.20;2304.00;;;;;;5085819;28;20023;-73
2021/07/04 07:16:47;;;;;;;6.75;5.05;;;691.30;2278.40;;;;;;5079011;28;20016;-73
2021/07/04 07:19:13;;;;;;;6.25;4.90;;;716.90;2252.80;;;;;;5080741;28;20024;-73
2021/07/04 07:21:38;;;;;;;5.53;5.00;;;743.30;2099.20;;;;;;5101426;28;20555;-72
2021/07/04 07:24:04;;;;;;;5.40;4.90;;;845.60;1894.40;;;;;;5088767;28;20051;-73
2021/07/04 07:26:30;;;;;;;6.95;5.00;;;973.20;1612.80;;;;;;5087940;28;20565;-73
2021/07/04 07:28:56;;;;;;;5.88;4.68;;;1049.70;1459.20;;;;;;5078973;28;20135;-72
2021/07/04 07:31:23;;;;;;;6.65;4.85;;;1101.00;1331.20;;;;;;5082788;28;20020;-73
2021/07/04 07:33:48;;;;;;;5.28;4.43;;;1152.10;1228.80;;;;;;5072353;28;20082;-73
2021/07/04 07:36:14;;;;;;;5.25;4.43;;;1152.50;1177.60;;;;;;5087388;28;20492;-74
2021/07/04 07:38:40;;;;;;;6.80;4.80;;;1178.20;1126.40;;;;;;5074874;28;20462;-72
2021/07/04 07:41:06;;;;;;;7.10;4.85;;;1152.20;1152.00;;;;;;5092278;28;20076;-76
2021/07/04 07:43:31;;;;;;;5.30;4.80;;;1049.60;1228.80;;;;;;5092485;28;20035;-75
2021/07/04 07:45:57;;;;;;;6.80;5.15;;;973.20;1331.20;;;;;;5074167;28;20021;-78
2021/07/04 07:48:23;;;;;;;5.35;4.85;;;896.90;1382.40;;;;;;5084041;28;20024;-69
2021/07/04 07:50:49;;;;;;;7.70;5.20;;;845.60;1484.80;;;;;;5092095;28;20055;-72
2021/07/04 07:53:15;;;;;;;5.82;4.90;;;845.50;1484.80;;;;;;5093143;28;20097;-71
2021/07/04 07:55:41;;;;;;;5.43;4.53;;;871.20;1459.20;;;;;;5099260;28;22593;-73
2021/07/04 07:58:07;;;;;;;5.30;4.65;;;947.90;1356.80;;;;;;5073724;28;20024;-71
2021/07/04 08:00:33;;;;;;;5.45;4.28;;;1050.50;1254.40;;;;;;5098396;28;20024;-70
2021/07/04 08:03:00;;;;;;;7.65;4.80;;;1152.20;1177.60;;;;;;5085812;28;20017;-72
2021/07/04 08:05:26;;;;;;;4.88;4.00;;;1178.30;1100.80;;;;;;5084761;28;20448;-74
2021/07/04 08:07:52;;;;;;;7.72;4.18;;;1254.50;1100.80;;;;;;5081975;28;20031;-72
2021/07/04 08:10:18;;;;;;;5.47;4.15;;;1280.70;1075.20;;;;;;5094719;28;20032;-76
2021/07/04 08:12:43;;;;;;;6.38;4.72;;;1306.00;1049.60;;;;;;5093365;28;20031;-72
2021/07/04 08:15:10;;;;;;;4.68;4.03;;;1306.00;1024.00;;;;;;5093562;28;20040;-77
2021/07/04 08:17:36;;;;;;;6.45;4.32;;;1306.00;1024.00;;;;;;5090810;28;20024;-72
2021/07/04 08:20:04;;;;;;;6.63;4.35;;;1331.70;1024.00;;;;;;5091320;28;20156;-73
2021/07/04 08:22:30;;;;;;;6.97;4.30;;;1356.90;1024.00;;;;;;5088656;28;20499;-73
2021/07/04 08:24:55;;;;;;;5.47;4.22;;;1357.10;1024.00;;;;;;5089292;28;20021;-77
2021/07/04 08:27:21;;;;;;;5.88;4.20;;;1331.70;998.40;;;;;;5082390;28;20028;-77
2021/07/04 08:29:47;;;;;;;5.60;4.10;;;1356.90;1024.00;;;;;;5083047;28;20100;-74
2021/07/04 08:32:13;;;;;;;5.65;4.13;;;1357.50;972.80;;;;;;5084120;28;20051;-73
2021/07/04 08:34:38;;;;;;;5.38;4.03;;;1356.90;998.40;;;;;;5084807;28;20020;-83
2021/07/04 08:37:04;;;;;;;4.97;4.03;;;1331.70;972.80;;;;;;5084720;28;20027;-73
2021/07/04 08:39:31;;;;;;;6.40;4.10;;;1306.30;972.80;;;;;;5090275;28;20050;-73
2021/07/04 08:41:59;;;;;;;4.30;3.90;;;1331.40;998.40;;;;;;5091711;28;20440;-73
2021/07/04 08:44:25;;;;;;;6.78;4.72;;;1357.10;998.40;;;;;;5092118;28;20558;-78
2021/07/04 08:46:51;;;;;;;5.85;4.45;;;1331.40;998.40;;;;;;5089997;28;20110;-73
2021/07/04 08:49:17;;;;;;;6.25;4.50;;;1255.10;1024.00;;;;;;5105218;28;20012;-71
2021/07/04 08:51:44;;;;;;;6.43;4.60;;;1204.10;1024.00;;;;;;5097748;28;20089;-77
2021/07/04 08:54:10;;;;;;;6.18;4.38;;;1101.60;1075.20;;;;;;5094414;28;20024;-74
2021/07/04 08:56:36;;;;;;;6.35;4.63;;;1050.20;1126.40;;;;;;5091251;28;20078;-76
2021/07/04 08:59:02;;;;;;;5.63;4.80;;;998.80;1177.60;;;;;;5084907;28;20086;-72
2021/07/04 09:01:29;;;;;;;6.30;4.93;;;948.10;1228.80;;;;;;5093077;28;20103;-72
2021/07/04 09:04:11;;;;;;;8.40;5.10;;;922.00;1280.00;;;;;;5090950;28;20100;-72
2021/07/04 09:06:48;;;;;;;7.53;4.40;;;871.10;1331.20;;;;;;5091565;28;20424;-75
2021/07/04 09:09:14;;;;;;;6.15;4.50;;;870.70;1331.20;;;;;;5087877;28;20509;-71
2021/07/04 09:11:55;;;;;;;5.20;4.10;;;845.60;1408.00;;;;;;5092140;28;20020;-72
2021/07/04 09:14:47;;;;;;;5.30;4.13;;;845.20;1305.60;;;;;;5096255;28;20023;-71
2021/07/04 09:17:15;;;;;;;5.05;3.95;;;845.00;1356.80;;;;;;5082213;28;20450;-76
2021/07/04 09:19:53;;;;;;;6.55;4.53;;;844.90;1356.80;;;;;;5085654;28;21280;-71
2021/07/04 09:22:29;;;;;;;6.10;4.40;;;820.10;1356.80;;;;;;5092352;28;20039;-75
2021/07/04 09:25:12;;;;;;;5.75;4.28;;;819.90;1331.20;;;;;;5099378;28;20081;-70
2021/07/04 09:28:01;;;;;;;5.15;3.90;;;819.80;1356.80;;;;;;5086346;28;20073;-71
2021/07/04 09:30:36;;;;;;;5.03;4.22;;;819.70;1356.80;;;;;;5089772;28;20019;-72
2021/07/04 09:33:24;;;;;;;5.03;4.03;;;819.60;1356.80;;;;;;5065217;28;20461;-71
2021/07/04 09:36:03;;;;;;;5.72;3.65;;;819.30;1382.40;;;;;;5078608;28;20036;-73
2021/07/04 09:38:43;;;;;;;5.00;3.30;;;819.20;1331.20;;;;;;5089183;28;20131;-71
2021/07/04 09:41:12;;;;;;;4.07;3.28;;;794.50;1331.20;;;;;;5090219;28;20501;-73
2021/07/04 09:43:38;;;;;;;5.43;3.42;;;794.50;1331.20;;;;;;5087376;28;20038;-72
2021/07/04 09:46:06;;;;;;;4.32;3.45;;;794.50;1356.80;;;;;;5091104;28;20020;-71
2021/07/04 09:48:34;;;;;;;5.10;3.63;;;794.40;1356.80;;;;;;5086899;28;20382;-74
2021/07/04 09:51:11;;;;;;;4.95;3.75;;;794.40;1331.20;;;;;;5088675;28;20028;-73
2021/07/04 09:53:41;;;;;;;5.80;3.53;;;794.30;1382.40;;;;;;5088398;28;20198;-72
2021/07/04 09:56:09;;;;;;;6.18;3.70;;;794.30;1356.80;;;;;;5086446;28;20501;-76
2021/07/04 09:58:36;;;;;;;4.38;3.53;;;794.50;1331.20;;;;;;5091333;28;20067;-72
2021/07/04 10:01:02;;;;;;;5.63;3.65;;;819.30;1356.80;;;;;;5090253;28;20020;-73
2021/07/04 10:03:27;;;;;;;4.57;3.42;;;819.60;1305.60;;;;;;5086643;28;20050;-78
2021/07/04 10:05:53;;;;;;;4.20;3.30;;;819.50;1305.60;;;;;;5087595;28;20028;-72
2021/07/04 10:08:33;;;;;;;5.43;3.40;;;819.50;1305.60;;;;;;5087686;28;20027;-74
2021/07/04 10:11:02;;;;;;;5.25;3.30;;;819.50;1305.60;;;;;;5088723;28;20032;-74
2021/07/04 10:13:29;;;;;;;5.35;3.78;;;819.60;1331.20;;;;;;5091325;28;20042;-73
2021/07/04 10:15:56;;;;;;;5.72;3.58;;;819.50;1331.20;;;;;;5088805;28;20036;-72
2021/07/04 10:18:22;;;;;;;5.22;3.45;;;819.50;1331.20;;;;;;5087735;28;20044;-72
2021/07/04 10:20:49;;;;;;;5.25;3.67;;;819.30;1331.20;;;;;;5091099;28;20506;-71
2021/07/04 10:23:21;;;;;;;5.03;3.33;;;819.30;1331.20;;;;;;5088949;28;20355;-72
2021/07/04 10:25:48;;;;;;;4.20;3.40;;;819.30;1331.20;;;;;;5090640;28;20028;-72
2021/07/04 10:28:18;;;;;;;5.80;3.33;;;819.30;1331.20;;;;;;5084010;28;20024;-72
2021/07/04 10:30:47;;;;;;;4.85;3.25;;;794.50;1305.60;;;;;;5091649;28;20051;-71
2021/07/04 10:33:32;;;;;;;4.07;3.47;;;819.20;1331.20;;;;;;5086706;28;20486;-71
2021/07/04 10:36:03;;;;;;;4.25;3.42;;;819.20;1356.80;;;;;;5086910;28;20035;-76
2021/07/04 10:39:09;;;;;;;5.43;3.47;;;819.20;1331.20;;;;;;5087077;28;20021;-71
2021/07/04 10:41:35;;;;;;;4.90;3.90;;;819.30;1356.80;;;;;;5082680;28;20047;-72
2021/07/04 10:44:08;;;;;;;4.75;3.40;;;819.30;1331.20;;;;;;5089748;28;20028;-72
2021/07/04 10:46:49;;;;;;;5.18;3.22;;;819.30;1305.60;;;;;;5087435;28;20565;-72
2021/07/04 10:49:21;;;;;;;5.80;3.40;;;819.30;1305.60;;;;;;5090645;28;20024;-76
2021/07/04 10:52:01;;;;;;;5.00;3.30;;;819.30;1305.60;;;;;;5087878;28;20114;-73
2021/07/04 10:54:47;;;;;;;5.73;3.50;;;819.50;1305.60;;;;;;5080213;28;20089;-71
2021/07/04 10:57:32;;;;;;;4.28;3.30;;;819.40;1305.60;;;;;;5079354;28;20294;-72
2021/07/04 11:00:00;;;;;;;4.80;3.50;;;819.40;1305.60;;;;;;5087906;28;20028;-77
2021/07/04 11:02:48;;;;;;;4.30;3.50;;;819.50;1305.60;;;;;;5074972;28;20021;-73
2021/07/04 11:05:40;;;;;;;4.72;3.40;;;819.40;1305.60;;;;;;5089815;28;20080;-75
2021/07/04 11:08:09;;;;;;;4.95;3.40;;;819.30;1305.60;;;;;;5086051;28;20110;-73
2021/07/04 11:10:52;;;;;;;5.50;3.60;;;819.50;1331.20;;;;;;5090297;28;20024;-74
2021/07/04 11:13:17;;;;;;;4.95;3.50;;;819.60;1331.20;;;;;;5084133;28;20376;-72
2021/07/04 11:15:50;;;;;;;4.82;3.65;;;819.60;1305.60;;;;;;5087017;28;20039;-74
2021/07/04 11:18:17;;;;;;;6.22;3.50;;;819.60;1280.00;;;;;;5076558;28;20031;-72
2021/07/04 11:20:44;;;;;;;5.28;3.67;;;819.60;1331.20;;;;;;5087828;28;20133;-73
2021/07/04 11:23:15;;;;;;;4.65;3.47;;;819.50;1331.20;;;;;;5089430;28;20051;-72
2021/07/04 11:25:53;;;;;;;4.70;3.60;;;819.40;1331.20;;;;;;5087188;28;20530;-74
2021/07/04 11:28:19;;;;;;;4.60;3.50;;;819.40;1331.20;;;;;;5092288;28;20024;-74
2021/07/04 11:30:45;;;;;;;5.95;3.60;;;819.50;1305.60;;;;;;5091407;28;20035;-74
2021/07/04 11:33:32;;;;;;;3.95;3.45;;;819.50;1356.80;;;;;;5094299;28;20020;-73
2021/07/04 11:36:00;;;;;;;4.72;3.42;;;819.60;1280.00;;;;;;5078907;28;20028;-73
2021/07/04 11:38:33;;;;;;;5.47;3.67;;;819.70;1305.60;;;;;;5092831;28;20510;-75
2021/07/04 11:40:59;;;;;;;5.65;3.58;;;819.80;1280.00;;;;;;5092992;28;20073;-75
2021/07/04 11:43:28;;;;;;;4.50;3.30;;;845.00;1305.60;;;;;;5070733;28;20444;-74
2021/07/04 11:46:05;;;;;;;4.28;3.40;;;845.60;1305.60;;;;;;5090908;28;20031;-73
2021/07/04 11:48:52;;;;;;;5.28;3.40;;;845.70;1280.00;;;;;;5090990;28;20048;-73
2021/07/04 11:51:28;;;;;;;5.47;3.55;;;845.10;1280.00;;;;;;5092072;28;20020;-72
2021/07/04 11:53:56;;;;;;;5.22;3.60;;;820.10;1305.60;;;;;;5084803;28;20100;-72
2021/07/04 11:56:22;;;;;;;5.30;3.70;;;819.70;1305.60;;;;;;5067490;28;20051;-73
2021/07/04 11:58:48;;;;;;;5.82;3.50;;;819.50;1331.20;;;;;;5091459;28;20507;-72
2021/07/04 12:01:20;;;;;;;4.90;4.00;;;819.30;1331.20;;;;;;5090483;28;20078;-72
2021/07/04 12:03:54;;;;;;;5.95;3.60;;;819.30;1331.20;;;;;;5090802;28;20028;-72
2021/07/04 12:06:22;;;;;;;4.70;3.60;;;820.10;1305.60;;;;;;5088429;28;20016;-74
2021/07/04 12:09:05;;;;;;;5.47;3.40;;;845.20;1305.60;;;;;;5083102;28;20025;-73
2021/07/04 12:11:40;;;;;;;5.03;3.40;;;845.10;1305.60;;;;;;5087460;28;20374;-75
2021/07/04 12:14:31;;;;;;;4.78;3.45;;;820.10;1280.00;;;;;;5091770;28;20440;-74
2021/07/04 12:17:14;;;;;;;4.45;3.40;;;819.80;1305.60;;;;;;5085274;28;20024;-74
2021/07/04 12:19:41;;;;;;;5.13;3.53;;;819.90;1331.20;;;;;;5092057;28;20058;-72
2021/07/04 12:22:12;;;;;;;4.50;3.50;;;820.10;1305.60;;;;;;5087554;28;20041;-74
2021/07/04 12:24:41;;;;;;;4.93;3.70;;;845.00;1356.80;;;;;;5090347;28;20020;-73